Terminal Aerodrome Forecast
Issued by NWS Louisville, KY

Home | Current Version | Previous Version | Text Only | Print | Product List | Glossary On
Versions: 1 2 3 4 5 6 7 8 9 10 11 12 13 14 15
132
FTUS43 KLMK 040520
TAFLEX
TAF
KLEX 040520Z 0406/0506 23005KT P6SM BKN080
     FM041500 23012G18KT P6SM VCSH BKN030
     FM042000 27012G18KT P6SM VCSH BKN020
     FM050000 30010KT P6SM BKN035=

USA.gov is the U.S. government's official web portal to all federal, state and local government web resources and services.